sensor_id;sensor_type;location;lat;lon;timestamp;temperature;humidity
55064;DHT22;40963;52.168;21.296;2023-05-07T00:01:49;5.60;99.90
55064;DHT22;40963;52.168;21.296;2023-05-07T00:04:14;5.70;99.90
55064;DHT22;40963;52.168;21.296;2023-05-07T00:06:40;5.70;99.90
55064;DHT22;40963;52.168;21.296;2023-05-07T00:09:06;5.60;99.90
55064;DHT22;40963;52.168;21.296;2023-05-07T00:11:32;5.60;99.90
55064;DHT22;40963;52.168;21.296;2023-05-07T00:13:58;5.60;99.90
55064;DHT22;40963;52.168;21.296;2023-05-07T00:16:23;5.60;99.90
55064;DHT22;40963;52.168;21.296;2023-05-07T00:18:49;5.60;99.90
55064;DHT22;40963;52.168;21.296;2023-05-07T00:21:15;5.60;99.90
55064;DHT22;40963;52.168;21.296;2023-05-07T00:23:41;5.60;99.90
55064;DHT22;40963;52.168;21.296;2023-05-07T00:26:07;5.60;99.90
55064;DHT22;40963;52.168;21.296;2023-05-07T00:28:32;5.60;99.90
55064;DHT22;40963;52.168;21.296;2023-05-07T00:30:58;5.60;99.90
55064;DHT22;40963;52.168;21.296;2023-05-07T00:33:24;5.60;99.90
55064;DHT22;40963;52.168;21.296;2023-05-07T00:35:51;5.60;99.90
55064;DHT22;40963;52.168;21.296;2023-05-07T00:38:17;5.60;99.90
55064;DHT22;40963;52.168;21.296;2023-05-07T00:40:43;5.60;99.90
55064;DHT22;40963;52.168;21.296;2023-05-07T00:43:08;5.60;99.90
55064;DHT22;40963;52.168;21.296;2023-05-07T00:45:34;5.60;99.90
55064;DHT22;40963;52.168;21.296;2023-05-07T00:48:01;5.60;99.90
55064;DHT22;40963;52.168;21.296;2023-05-07T00:50:28;5.50;99.90
55064;DHT22;40963;52.168;21.296;2023-05-07T00:52:54;5.50;99.90
55064;DHT22;40963;52.168;21.296;2023-05-07T00:55:21;5.50;99.90
55064;DHT22;40963;52.168;21.296;2023-05-07T00:57:46;5.50;99.90
55064;DHT22;40963;52.168;21.296;2023-05-07T01:00:12;5.50;99.90
55064;DHT22;40963;52.168;21.296;2023-05-07T01:02:39;5.50;99.90
55064;DHT22;40963;52.168;21.296;2023-05-07T01:05:06;5.50;99.90
55064;DHT22;40963;52.168;21.296;2023-05-07T01:07:33;5.50;99.90
55064;DHT22;40963;52.168;21.296;2023-05-07T01:10:00;5.50;99.90
55064;DHT22;40963;52.168;21.296;2023-05-07T01:12:29;5.50;99.90
55064;DHT22;40963;52.168;21.296;2023-05-07T01:14:56;5.40;99.90
55064;DHT22;40963;52.168;21.296;2023-05-07T01:17:22;5.40;99.90
55064;DHT22;40963;52.168;21.296;2023-05-07T01:19:48;5.40;99.90
55064;DHT22;40963;52.168;21.296;2023-05-07T01:22:15;5.50;99.90
55064;DHT22;40963;52.168;21.296;2023-05-07T01:24:42;5.40;99.90
55064;DHT22;40963;52.168;21.296;2023-05-07T01:27:07;5.40;99.90
55064;DHT22;40963;52.168;21.296;2023-05-07T01:29:33;5.40;99.90
55064;DHT22;40963;52.168;21.296;2023-05-07T01:32:00;5.40;99.90
55064;DHT22;40963;52.168;21.296;2023-05-07T01:34:29;5.40;99.90
55064;DHT22;40963;52.168;21.296;2023-05-07T01:36:56;5.40;99.90
55064;DHT22;40963;52.168;21.296;2023-05-07T01:39:27;5.40;99.90
55064;DHT22;40963;52.168;21.296;2023-05-07T01:41:57;5.40;99.90
55064;DHT22;40963;52.168;21.296;2023-05-07T01:44:24;5.40;99.90
55064;DHT22;40963;52.168;21.296;2023-05-07T01:46:51;5.30;99.90
55064;DHT22;40963;52.168;21.296;2023-05-07T01:49:17;5.30;99.90
55064;DHT22;40963;52.168;21.296;2023-05-07T01:51:43;5.40;99.90
55064;DHT22;40963;52.168;21.296;2023-05-07T01:54:08;5.40;99.90
55064;DHT22;40963;52.168;21.296;2023-05-07T01:56:34;5.40;99.90
55064;DHT22;40963;52.168;21.296;2023-05-07T01:59:00;5.40;99.90
55064;DHT22;40963;52.168;21.296;2023-05-07T02:01:26;5.40;99.90
55064;DHT22;40963;52.168;21.296;2023-05-07T02:03:51;5.40;99.90
55064;DHT22;40963;52.168;21.296;2023-05-07T02:06:17;5.40;99.90
55064;DHT22;40963;52.168;21.296;2023-05-07T02:08:42;5.40;99.90
55064;DHT22;40963;52.168;21.296;2023-05-07T02:11:08;5.40;99.90
55064;DHT22;40963;52.168;21.296;2023-05-07T02:13:34;5.40;99.90
55064;DHT22;40963;52.168;21.296;2023-05-07T02:16:00;5.40;99.90
55064;DHT22;40963;52.168;21.296;2023-05-07T02:18:26;5.40;99.90
55064;DHT22;40963;52.168;21.296;2023-05-07T02:20:52;5.40;99.90
55064;DHT22;40963;52.168;21.296;2023-05-07T02:23:17;5.40;99.90
55064;DHT22;40963;52.168;21.296;2023-05-07T02:25:43;5.40;99.90
55064;DHT22;40963;52.168;21.296;2023-05-07T02:28:08;5.40;99.90
55064;DHT22;40963;52.168;21.296;2023-05-07T02:30:34;5.40;99.90
55064;DHT22;40963;52.168;21.296;2023-05-07T02:33:00;5.40;99.90
55064;DHT22;40963;52.168;21.296;2023-05-07T02:35:25;5.40;99.90
55064;DHT22;40963;52.168;21.296;2023-05-07T02:37:51;5.40;99.90
55064;DHT22;40963;52.168;21.296;2023-05-07T02:40:17;5.40;99.90
55064;DHT22;40963;52.168;21.296;2023-05-07T02:42:42;5.40;99.90
55064;DHT22;40963;52.168;21.296;2023-05-07T02:45:08;5.40;99.90
55064;DHT22;40963;52.168;21.296;2023-05-07T02:47:34;5.40;99.90
55064;DHT22;40963;52.168;21.296;2023-05-07T02:50:00;5.40;99.90
55064;DHT22;40963;52.168;21.296;2023-05-07T02:52:25;5.40;99.90
55064;DHT22;40963;52.168;21.296;2023-05-07T02:54:51;5.40;99.90
55064;DHT22;40963;52.168;21.296;2023-05-07T02:57:16;5.40;99.90
55064;DHT22;40963;52.168;21.296;2023-05-07T02:59:42;5.40;99.90
55064;DHT22;40963;52.168;21.296;2023-05-07T03:02:08;5.40;99.90
55064;DHT22;40963;52.168;21.296;2023-05-07T03:04:34;5.40;99.90
55064;DHT22;40963;52.168;21.296;2023-05-07T03:06:59;5.40;99.90
55064;DHT22;40963;52.168;21.296;2023-05-07T03:09:25;5.40;99.90
55064;DHT22;40963;52.168;21.296;2023-05-07T03:11:51;5.40;99.90
55064;DHT22;40963;52.168;21.296;2023-05-07T03:14:17;5.40;99.90
55064;DHT22;40963;52.168;21.296;2023-05-07T03:16:42;5.40;99.90
55064;DHT22;40963;52.168;21.296;2023-05-07T03:19:08;5.40;99.90
55064;DHT22;40963;52.168;21.296;2023-05-07T03:21:33;5.40;99.90
55064;DHT22;40963;52.168;21.296;2023-05-07T03:24:00;5.40;99.90
55064;DHT22;40963;52.168;21.296;2023-05-07T03:26:26;5.40;99.90
55064;DHT22;40963;52.168;21.296;2023-05-07T03:28:51;5.40;99.90
55064;DHT22;40963;52.168;21.296;2023-05-07T03:31:17;5.40;99.90
55064;DHT22;40963;52.168;21.296;2023-05-07T03:33:51;5.40;99.90
55064;DHT22;40963;52.168;21.296;2023-05-07T03:36:17;5.30;99.90
55064;DHT22;40963;52.168;21.296;2023-05-07T03:38:43;5.40;99.90
55064;DHT22;40963;52.168;21.296;2023-05-07T03:41:09;5.40;99.90
55064;DHT22;40963;52.168;21.296;2023-05-07T03:43:35;5.40;99.90
55064;DHT22;40963;52.168;21.296;2023-05-07T03:46:00;5.40;99.90
55064;DHT22;40963;52.168;21.296;2023-05-07T03:48:26;5.40;99.90
55064;DHT22;40963;52.168;21.296;2023-05-07T03:50:51;5.40;99.90
55064;DHT22;40963;52.168;21.296;2023-05-07T03:53:17;5.40;99.90
55064;DHT22;40963;52.168;21.296;2023-05-07T03:55:43;5.40;99.90
55064;DHT22;40963;52.168;21.296;2023-05-07T03:58:08;5.40;99.90
55064;DHT22;40963;52.168;21.296;2023-05-07T04:00:34;5.40;99.90
55064;DHT22;40963;52.168;21.296;2023-05-07T04:03:03;5.40;99.90
55064;DHT22;40963;52.168;21.296;2023-05-07T04:05:30;5.40;99.90
55064;DHT22;40963;52.168;21.296;2023-05-07T04:07:57;5.40;99.90
55064;DHT22;40963;52.168;21.296;2023-05-07T04:10:22;5.40;99.90
55064;DHT22;40963;52.168;21.296;2023-05-07T04:12:48;5.40;99.90
55064;DHT22;40963;52.168;21.296;2023-05-07T04:15:14;5.40;99.90
55064;DHT22;40963;52.168;21.296;2023-05-07T04:17:39;5.40;99.90
55064;DHT22;40963;52.168;21.296;2023-05-07T04:20:10;5.40;99.90
55064;DHT22;40963;52.168;21.296;2023-05-07T04:22:36;5.40;99.90
55064;DHT22;40963;52.168;21.296;2023-05-07T04:25:02;5.40;99.90
55064;DHT22;40963;52.168;21.296;2023-05-07T04:27:28;5.40;99.90
55064;DHT22;40963;52.168;21.296;2023-05-07T04:29:53;5.40;99.90
55064;DHT22;40963;52.168;21.296;2023-05-07T04:32:21;5.40;99.90
55064;DHT22;40963;52.168;21.296;2023-05-07T04:34:47;5.40;99.90
55064;DHT22;40963;52.168;21.296;2023-05-07T04:37:12;5.40;99.90
55064;DHT22;40963;52.168;21.296;2023-05-07T04:39:38;5.40;99.90
55064;DHT22;40963;52.168;21.296;2023-05-07T04:42:03;5.40;99.90
55064;DHT22;40963;52.168;21.296;2023-05-07T04:44:29;5.50;99.90
55064;DHT22;40963;52.168;21.296;2023-05-07T04:46:56;5.50;99.90
55064;DHT22;40963;52.168;21.296;2023-05-07T04:49:22;5.50;99.90
55064;DHT22;40963;52.168;21.296;2023-05-07T04:51:47;5.60;99.90
55064;DHT22;40963;52.168;21.296;2023-05-07T04:54:13;5.50;99.90
55064;DHT22;40963;52.168;21.296;2023-05-07T04:56:39;5.50;99.90
55064;DHT22;40963;52.168;21.296;2023-05-07T04:59:04;5.50;99.90
55064;DHT22;40963;52.168;21.296;2023-05-07T05:01:31;5.60;99.90
55064;DHT22;40963;52.168;21.296;2023-05-07T05:03:57;5.60;99.90
55064;DHT22;40963;52.168;21.296;2023-05-07T05:06:22;5.60;99.90
55064;DHT22;40963;52.168;21.296;2023-05-07T05:08:48;5.60;99.90
55064;DHT22;40963;52.168;21.296;2023-05-07T05:11:13;5.60;99.90
55064;DHT22;40963;52.168;21.296;2023-05-07T05:13:40;5.60;99.90
55064;DHT22;40963;52.168;21.296;2023-05-07T05:16:05;5.60;99.90
55064;DHT22;40963;52.168;21.296;2023-05-07T05:18:31;5.60;99.90
55064;DHT22;40963;52.168;21.296;2023-05-07T05:20:56;5.60;99.90
55064;DHT22;40963;52.168;21.296;2023-05-07T05:23:22;5.60;99.90
55064;DHT22;40963;52.168;21.296;2023-05-07T05:25:48;5.70;99.90
55064;DHT22;40963;52.168;21.296;2023-05-07T05:28:13;5.70;99.90
55064;DHT22;40963;52.168;21.296;2023-05-07T05:30:39;5.70;99.90
55064;DHT22;40963;52.168;21.296;2023-05-07T05:33:05;5.70;99.90
55064;DHT22;40963;52.168;21.296;2023-05-07T05:35:30;5.70;99.90
55064;DHT22;40963;52.168;21.296;2023-05-07T05:37:57;5.70;99.90
55064;DHT22;40963;52.168;21.296;2023-05-07T05:40:22;5.80;99.90
55064;DHT22;40963;52.168;21.296;2023-05-07T05:42:48;5.80;99.90
55064;DHT22;40963;52.168;21.296;2023-05-07T05:45:14;5.80;99.90
55064;DHT22;40963;52.168;21.296;2023-05-07T05:47:40;5.90;99.90
55064;DHT22;40963;52.168;21.296;2023-05-07T05:50:06;5.90;99.90
55064;DHT22;40963;52.168;21.296;2023-05-07T05:52:32;6.00;99.90
55064;DHT22;40963;52.168;21.296;2023-05-07T05:54:58;6.00;99.90
55064;DHT22;40963;52.168;21.296;2023-05-07T05:57:23;6.00;99.90
55064;DHT22;40963;52.168;21.296;2023-05-07T05:59:49;6.10;99.90
55064;DHT22;40963;52.168;21.296;2023-05-07T06:02:14;6.10;99.90
55064;DHT22;40963;52.168;21.296;2023-05-07T06:04:40;6.20;99.90
55064;DHT22;40963;52.168;21.296;2023-05-07T06:07:06;6.20;99.90
55064;DHT22;40963;52.168;21.296;2023-05-07T06:09:31;6.20;99.90
55064;DHT22;40963;52.168;21.296;2023-05-07T06:11:57;6.30;99.90
55064;DHT22;40963;52.168;21.296;2023-05-07T06:14:22;6.40;99.90
55064;DHT22;40963;52.168;21.296;2023-05-07T06:16:48;6.40;99.90
55064;DHT22;40963;52.168;21.296;2023-05-07T06:19:14;6.50;99.90
55064;DHT22;40963;52.168;21.296;2023-05-07T06:21:39;6.50;99.90
55064;DHT22;40963;52.168;21.296;2023-05-07T06:24:06;6.50;99.90
55064;DHT22;40963;52.168;21.296;2023-05-07T06:26:31;6.60;99.90
55064;DHT22;40963;52.168;21.296;2023-05-07T06:28:57;6.60;99.90
55064;DHT22;40963;52.168;21.296;2023-05-07T06:31:22;6.60;99.90
55064;DHT22;40963;52.168;21.296;2023-05-07T06:33:49;6.60;99.90
55064;DHT22;40963;52.168;21.296;2023-05-07T06:36:15;6.70;99.90
55064;DHT22;40963;52.168;21.296;2023-05-07T06:38:41;6.80;99.90
55064;DHT22;40963;52.168;21.296;2023-05-07T06:41:06;6.80;99.90
55064;DHT22;40963;52.168;21.296;2023-05-07T06:43:32;6.90;99.90
55064;DHT22;40963;52.168;21.296;2023-05-07T06:45:58;6.90;99.90
55064;DHT22;40963;52.168;21.296;2023-05-07T06:48:23;7.00;99.90
55064;DHT22;40963;52.168;21.296;2023-05-07T06:50:50;7.00;99.90
55064;DHT22;40963;52.168;21.296;2023-05-07T06:53:15;7.00;99.90
55064;DHT22;40963;52.168;21.296;2023-05-07T06:55:41;7.00;99.90
55064;DHT22;40963;52.168;21.296;2023-05-07T06:58:07;7.00;99.90
55064;DHT22;40963;52.168;21.296;2023-05-07T07:00:32;7.00;99.90
55064;DHT22;40963;52.168;21.296;2023-05-07T07:02:58;7.00;99.90
55064;DHT22;40963;52.168;21.296;2023-05-07T07:05:24;7.00;99.90
55064;DHT22;40963;52.168;21.296;2023-05-07T07:07:50;7.00;99.90
55064;DHT22;40963;52.168;21.296;2023-05-07T07:10:20;7.00;99.90
55064;DHT22;40963;52.168;21.296;2023-05-07T07:12:45;7.00;99.90
55064;DHT22;40963;52.168;21.296;2023-05-07T07:15:11;7.00;99.90
55064;DHT22;40963;52.168;21.296;2023-05-07T07:17:37;7.00;99.90
55064;DHT22;40963;52.168;21.296;2023-05-07T07:20:03;7.00;99.90
55064;DHT22;40963;52.168;21.296;2023-05-07T07:22:29;7.00;99.90
55064;DHT22;40963;52.168;21.296;2023-05-07T07:24:54;7.00;99.90
55064;DHT22;40963;52.168;21.296;2023-05-07T07:27:20;7.10;99.90
55064;DHT22;40963;52.168;21.296;2023-05-07T07:29:46;7.20;99.90
55064;DHT22;40963;52.168;21.296;2023-05-07T07:32:11;7.30;99.90
55064;DHT22;40963;52.168;21.296;2023-05-07T07:34:37;7.40;99.90
55064;DHT22;40963;52.168;21.296;2023-05-07T07:37:02;7.40;99.90
55064;DHT22;40963;52.168;21.296;2023-05-07T07:39:32;7.40;99.90
55064;DHT22;40963;52.168;21.296;2023-05-07T07:41:57;7.50;99.90
55064;DHT22;40963;52.168;21.296;2023-05-07T07:44:23;7.50;99.90
55064;DHT22;40963;52.168;21.296;2023-05-07T07:46:48;7.60;99.90
55064;DHT22;40963;52.168;21.296;2023-05-07T07:49:15;7.60;99.90
55064;DHT22;40963;52.168;21.296;2023-05-07T07:51:40;7.70;99.90
55064;DHT22;40963;52.168;21.296;2023-05-07T07:54:06;7.80;99.90
55064;DHT22;40963;52.168;21.296;2023-05-07T07:56:32;7.90;99.90
55064;DHT22;40963;52.168;21.296;2023-05-07T07:59:01;8.00;99.90
55064;DHT22;40963;52.168;21.296;2023-05-07T08:01:27;8.10;99.90
55064;DHT22;40963;52.168;21.296;2023-05-07T08:03:53;8.10;99.90
55064;DHT22;40963;52.168;21.296;2023-05-07T08:06:19;8.20;99.90
55064;DHT22;40963;52.168;21.296;2023-05-07T08:08:44;8.20;99.90
55064;DHT22;40963;52.168;21.296;2023-05-07T08:11:10;8.30;99.90
55064;DHT22;40963;52.168;21.296;2023-05-07T08:13:36;8.30;99.90
55064;DHT22;40963;52.168;21.296;2023-05-07T08:16:03;8.30;99.90
55064;DHT22;40963;52.168;21.296;2023-05-07T08:18:29;8.40;99.90
55064;DHT22;40963;52.168;21.296;2023-05-07T08:20:55;8.40;99.90
55064;DHT22;40963;52.168;21.296;2023-05-07T08:23:21;8.40;99.90
55064;DHT22;40963;52.168;21.296;2023-05-07T08:25:47;8.40;99.90
55064;DHT22;40963;52.168;21.296;2023-05-07T08:28:13;8.40;99.90
55064;DHT22;40963;52.168;21.296;2023-05-07T08:30:40;8.40;99.90
55064;DHT22;40963;52.168;21.296;2023-05-07T08:33:05;8.30;99.90
55064;DHT22;40963;52.168;21.296;2023-05-07T08:35:31;8.30;99.90
55064;DHT22;40963;52.168;21.296;2023-05-07T08:37:57;8.30;99.90
55064;DHT22;40963;52.168;21.296;2023-05-07T08:40:25;8.30;99.90
55064;DHT22;40963;52.168;21.296;2023-05-07T08:42:52;8.30;99.90
55064;DHT22;40963;52.168;21.296;2023-05-07T08:45:19;8.30;99.90
55064;DHT22;40963;52.168;21.296;2023-05-07T08:47:58;8.20;99.90
55064;DHT22;40963;52.168;21.296;2023-05-07T08:50:24;8.30;99.90
55064;DHT22;40963;52.168;21.296;2023-05-07T08:52:50;8.30;99.90
55064;DHT22;40963;52.168;21.296;2023-05-07T08:55:16;8.30;99.90
55064;DHT22;40963;52.168;21.296;2023-05-07T08:57:42;8.30;99.90
55064;DHT22;40963;52.168;21.296;2023-05-07T09:00:08;8.30;99.90
55064;DHT22;40963;52.168;21.296;2023-05-07T09:02:36;8.40;99.90
55064;DHT22;40963;52.168;21.296;2023-05-07T09:05:02;8.50;99.90
55064;DHT22;40963;52.168;21.296;2023-05-07T09:07:28;8.60;99.90
55064;DHT22;40963;52.168;21.296;2023-05-07T09:09:55;8.70;99.90
55064;DHT22;40963;52.168;21.296;2023-05-07T09:12:22;8.70;99.90
55064;DHT22;40963;52.168;21.296;2023-05-07T09:14:49;8.90;99.90
55064;DHT22;40963;52.168;21.296;2023-05-07T09:17:16;9.00;99.90
55064;DHT22;40963;52.168;21.296;2023-05-07T09:19:44;9.00;99.90
55064;DHT22;40963;52.168;21.296;2023-05-07T09:22:11;9.10;99.90
55064;DHT22;40963;52.168;21.296;2023-05-07T09:24:37;9.20;99.90
55064;DHT22;40963;52.168;21.296;2023-05-07T09:27:03;9.10;99.90
55064;DHT22;40963;52.168;21.296;2023-05-07T09:29:30;9.20;99.90
55064;DHT22;40963;52.168;21.296;2023-05-07T09:32:04;9.20;99.90
55064;DHT22;40963;52.168;21.296;2023-05-07T09:34:30;9.20;99.90
55064;DHT22;40963;52.168;21.296;2023-05-07T09:36:59;9.20;99.90
55064;DHT22;40963;52.168;21.296;2023-05-07T09:39:25;9.20;99.90
55064;DHT22;40963;52.168;21.296;2023-05-07T09:41:51;9.20;99.90
55064;DHT22;40963;52.168;21.296;2023-05-07T09:44:20;9.10;99.90
55064;DHT22;40963;52.168;21.296;2023-05-07T09:46:47;9.10;99.90
55064;DHT22;40963;52.168;21.296;2023-05-07T09:49:21;9.10;99.90
55064;DHT22;40963;52.168;21.296;2023-05-07T09:51:51;9.10;99.90
55064;DHT22;40963;52.168;21.296;2023-05-07T09:54:18;9.10;99.90
55064;DHT22;40963;52.168;21.296;2023-05-07T09:56:45;9.10;99.90
55064;DHT22;40963;52.168;21.296;2023-05-07T09:59:15;9.10;99.90
55064;DHT22;40963;52.168;21.296;2023-05-07T10:01:42;9.20;99.90
55064;DHT22;40963;52.168;21.296;2023-05-07T10:04:09;9.10;99.90
55064;DHT22;40963;52.168;21.296;2023-05-07T10:06:36;9.10;99.90
55064;DHT22;40963;52.168;21.296;2023-05-07T10:09:03;9.10;99.90
55064;DHT22;40963;52.168;21.296;2023-05-07T10:11:34;9.10;99.90
55064;DHT22;40963;52.168;21.296;2023-05-07T10:14:01;9.10;99.60
55064;DHT22;40963;52.168;21.296;2023-05-07T10:16:30;9.10;98.90
55064;DHT22;40963;52.168;21.296;2023-05-07T10:18:58;9.10;98.60
55064;DHT22;40963;52.168;21.296;2023-05-07T10:21:27;9.00;98.80
55064;DHT22;40963;52.168;21.296;2023-05-07T10:24:04;9.00;98.50
55064;DHT22;40963;52.168;21.296;2023-05-07T10:26:36;9.00;98.10
55064;DHT22;40963;52.168;21.296;2023-05-07T10:29:37;9.00;97.90
55064;DHT22;40963;52.168;21.296;2023-05-07T10:34:34;8.90;97.20
55064;DHT22;40963;52.168;21.296;2023-05-07T10:37:01;9.00;97.20
55064;DHT22;40963;52.168;21.296;2023-05-07T10:39:27;8.90;96.80
55064;DHT22;40963;52.168;21.296;2023-05-07T10:41:53;9.00;96.70
55064;DHT22;40963;52.168;21.296;2023-05-07T10:44:28;9.00;96.60
55064;DHT22;40963;52.168;21.296;2023-05-07T10:47:07;9.00;96.30
55064;DHT22;40963;52.168;21.296;2023-05-07T10:52:16;9.00;95.90
55064;DHT22;40963;52.168;21.296;2023-05-07T10:54:43;9.00;95.70
55064;DHT22;40963;52.168;21.296;2023-05-07T10:59:53;9.20;95.60
55064;DHT22;40963;52.168;21.296;2023-05-07T11:02:19;9.20;95.10
55064;DHT22;40963;52.168;21.296;2023-05-07T11:04:45;9.20;95.30
55064;DHT22;40963;52.168;21.296;2023-05-07T11:07:25;9.30;95.20
55064;DHT22;40963;52.168;21.296;2023-05-07T11:12:17;9.30;94.10
55064;DHT22;40963;52.168;21.296;2023-05-07T11:14:46;9.30;93.90
55064;DHT22;40963;52.168;21.296;2023-05-07T11:17:12;9.30;94.20
55064;DHT22;40963;52.168;21.296;2023-05-07T11:19:52;9.30;93.90
55064;DHT22;40963;52.168;21.296;2023-05-07T11:25:02;9.50;94.00
55064;DHT22;40963;52.168;21.296;2023-05-07T11:27:29;9.50;93.50
55064;DHT22;40963;52.168;21.296;2023-05-07T11:29:55;9.50;92.60
55064;DHT22;40963;52.168;21.296;2023-05-07T11:32:29;9.60;92.30
55064;DHT22;40963;52.168;21.296;2023-05-07T11:34:56;9.50;91.40
55064;DHT22;40963;52.168;21.296;2023-05-07T11:37:23;9.50;91.20
55064;DHT22;40963;52.168;21.296;2023-05-07T11:39:49;9.40;91.50
55064;DHT22;40963;52.168;21.296;2023-05-07T11:42:29;9.50;91.40
55064;DHT22;40963;52.168;21.296;2023-05-07T11:44:54;9.60;91.90
55064;DHT22;40963;52.168;21.296;2023-05-07T11:47:20;9.70;91.70
55064;DHT22;40963;52.168;21.296;2023-05-07T11:49:48;9.80;91.90
55064;DHT22;40963;52.168;21.296;2023-05-07T11:52:14;10.00;91.60
55064;DHT22;40963;52.168;21.296;2023-05-07T11:54:40;10.10;90.20
55064;DHT22;40963;52.168;21.296;2023-05-07T11:57:05;10.10;89.20
55064;DHT22;40963;52.168;21.296;2023-05-07T11:59:39;10.10;88.10
55064;DHT22;40963;52.168;21.296;2023-05-07T12:02:06;10.00;88.30
55064;DHT22;40963;52.168;21.296;2023-05-07T12:04:32;10.00;88.20
55064;DHT22;40963;52.168;21.296;2023-05-07T12:06:57;10.00;87.90
55064;DHT22;40963;52.168;21.296;2023-05-07T12:09:23;10.00;87.20
55064;DHT22;40963;52.168;21.296;2023-05-07T12:11:49;10.00;87.40
55064;DHT22;40963;52.168;21.296;2023-05-07T12:14:16;10.00;87.40
55064;DHT22;40963;52.168;21.296;2023-05-07T12:16:42;10.00;87.50
55064;DHT22;40963;52.168;21.296;2023-05-07T12:19:08;10.00;87.20
55064;DHT22;40963;52.168;21.296;2023-05-07T12:21:38;10.10;87.10
55064;DHT22;40963;52.168;21.296;2023-05-07T12:24:04;10.10;87.00
55064;DHT22;40963;52.168;21.296;2023-05-07T12:26:30;10.20;87.70
55064;DHT22;40963;52.168;21.296;2023-05-07T12:28:57;10.20;87.50
55064;DHT22;40963;52.168;21.296;2023-05-07T12:31:25;10.20;84.60
55064;DHT22;40963;52.168;21.296;2023-05-07T12:33:51;10.20;85.30
55064;DHT22;40963;52.168;21.296;2023-05-07T12:36:16;10.20;84.70
55064;DHT22;40963;52.168;21.296;2023-05-07T12:38:42;10.10;83.40
55064;DHT22;40963;52.168;21.296;2023-05-07T12:41:09;10.20;83.60
55064;DHT22;40963;52.168;21.296;2023-05-07T12:43:35;10.20;84.20
55064;DHT22;40963;52.168;21.296;2023-05-07T12:46:04;10.20;84.10
55064;DHT22;40963;52.168;21.296;2023-05-07T12:48:30;10.30;83.90
55064;DHT22;40963;52.168;21.296;2023-05-07T12:50:57;10.40;83.60
55064;DHT22;40963;52.168;21.296;2023-05-07T12:53:24;10.50;83.10
55064;DHT22;40963;52.168;21.296;2023-05-07T12:55:52;10.60;83.10
55064;DHT22;40963;52.168;21.296;2023-05-07T12:58:29;10.60;83.70
55064;DHT22;40963;52.168;21.296;2023-05-07T13:00:56;10.60;83.00
55064;DHT22;40963;52.168;21.296;2023-05-07T13:03:32;10.60;83.00
55064;DHT22;40963;52.168;21.296;2023-05-07T13:06:01;10.60;82.60
55064;DHT22;40963;52.168;21.296;2023-05-07T13:08:34;10.60;82.50
55064;DHT22;40963;52.168;21.296;2023-05-07T13:11:02;10.60;82.30
55064;DHT22;40963;52.168;21.296;2023-05-07T13:13:31;10.60;82.80
55064;DHT22;40963;52.168;21.296;2023-05-07T13:15:57;10.70;82.30
55064;DHT22;40963;52.168;21.296;2023-05-07T13:18:25;10.70;81.80
55064;DHT22;40963;52.168;21.296;2023-05-07T13:20:50;10.70;81.90
55064;DHT22;40963;52.168;21.296;2023-05-07T13:23:16;10.80;82.60
55064;DHT22;40963;52.168;21.296;2023-05-07T13:25:42;10.90;81.70
55064;DHT22;40963;52.168;21.296;2023-05-07T13:28:08;10.90;80.90
55064;DHT22;40963;52.168;21.296;2023-05-07T13:30:33;10.90;79.90
55064;DHT22;40963;52.168;21.296;2023-05-07T13:32:59;11.00;80.00
55064;DHT22;40963;52.168;21.296;2023-05-07T13:35:25;11.10;79.90
55064;DHT22;40963;52.168;21.296;2023-05-07T13:37:50;11.20;78.90
55064;DHT22;40963;52.168;21.296;2023-05-07T13:40:17;11.30;79.50
55064;DHT22;40963;52.168;21.296;2023-05-07T13:42:44;11.40;78.20
55064;DHT22;40963;52.168;21.296;2023-05-07T13:45:10;11.40;77.10
55064;DHT22;40963;52.168;21.296;2023-05-07T13:47:36;11.40;76.60
55064;DHT22;40963;52.168;21.296;2023-05-07T13:50:01;11.40;75.30
55064;DHT22;40963;52.168;21.296;2023-05-07T13:52:27;11.40;75.40
55064;DHT22;40963;52.168;21.296;2023-05-07T13:54:52;11.40;75.50
55064;DHT22;40963;52.168;21.296;2023-05-07T13:57:18;11.50;75.70
55064;DHT22;40963;52.168;21.296;2023-05-07T13:59:44;11.60;75.30
55064;DHT22;40963;52.168;21.296;2023-05-07T14:02:09;11.70;75.50
55064;DHT22;40963;52.168;21.296;2023-05-07T14:04:37;11.80;74.90
55064;DHT22;40963;52.168;21.296;2023-05-07T14:07:03;11.90;74.40
55064;DHT22;40963;52.168;21.296;2023-05-07T14:09:28;11.90;73.80
55064;DHT22;40963;52.168;21.296;2023-05-07T14:11:54;11.80;72.80
55064;DHT22;40963;52.168;21.296;2023-05-07T14:14:20;11.70;72.80
55064;DHT22;40963;52.168;21.296;2023-05-07T14:16:45;11.70;72.40
55064;DHT22;40963;52.168;21.296;2023-05-07T14:19:12;11.70;73.10
55064;DHT22;40963;52.168;21.296;2023-05-07T14:21:37;11.80;73.40
55064;DHT22;40963;52.168;21.296;2023-05-07T14:24:04;11.80;72.10
55064;DHT22;40963;52.168;21.296;2023-05-07T14:26:29;11.90;71.90
55064;DHT22;40963;52.168;21.296;2023-05-07T14:28:55;11.90;72.10
55064;DHT22;40963;52.168;21.296;2023-05-07T14:31:23;12.00;72.10
55064;DHT22;40963;52.168;21.296;2023-05-07T14:33:49;12.00;71.00
55064;DHT22;40963;52.168;21.296;2023-05-07T14:36:16;12.00;70.60
55064;DHT22;40963;52.168;21.296;2023-05-07T14:38:42;12.00;70.70
55064;DHT22;40963;52.168;21.296;2023-05-07T14:41:08;11.90;70.30
55064;DHT22;40963;52.168;21.296;2023-05-07T14:43:33;11.80;70.90
55064;DHT22;40963;52.168;21.296;2023-05-07T14:45:59;11.80;71.20
55064;DHT22;40963;52.168;21.296;2023-05-07T14:48:24;11.90;71.60
55064;DHT22;40963;52.168;21.296;2023-05-07T14:50:50;12.00;71.20
55064;DHT22;40963;52.168;21.296;2023-05-07T14:53:16;12.00;70.40
55064;DHT22;40963;52.168;21.296;2023-05-07T14:55:41;12.00;70.60
55064;DHT22;40963;52.168;21.296;2023-05-07T14:58:07;12.10;71.40
55064;DHT22;40963;52.168;21.296;2023-05-07T15:00:33;12.20;71.10
55064;DHT22;40963;52.168;21.296;2023-05-07T15:03:05;12.30;70.20
55064;DHT22;40963;52.168;21.296;2023-05-07T15:05:32;12.30;69.50
55064;DHT22;40963;52.168;21.296;2023-05-07T15:07:58;12.20;68.60
55064;DHT22;40963;52.168;21.296;2023-05-07T15:10:23;12.10;68.30
55064;DHT22;40963;52.168;21.296;2023-05-07T15:12:49;12.10;68.60
55064;DHT22;40963;52.168;21.296;2023-05-07T15:15:14;12.00;68.30
55064;DHT22;40963;52.168;21.296;2023-05-07T15:17:40;12.00;67.30
55064;DHT22;40963;52.168;21.296;2023-05-07T15:20:06;11.90;66.80
55064;DHT22;40963;52.168;21.296;2023-05-07T15:22:33;12.00;67.40
55064;DHT22;40963;52.168;21.296;2023-05-07T15:24:59;12.00;67.30
55064;DHT22;40963;52.168;21.296;2023-05-07T15:27:25;12.10;67.90
55064;DHT22;40963;52.168;21.296;2023-05-07T15:29:51;12.10;67.50
55064;DHT22;40963;52.168;21.296;2023-05-07T15:32:17;12.10;67.50
55064;DHT22;40963;52.168;21.296;2023-05-07T15:34:43;12.10;67.40
55064;DHT22;40963;52.168;21.296;2023-05-07T15:37:08;12.10;67.00